Time;durP1;ratioP1;P1;durP2;ratioP2;P2;SDS_P1;SDS_P2;PMS_P1;PMS_P2;Temp;Humidity;BMP_temperature;BMP_pressure;BME280_temperature;BME280_humidity;BME280_pressure;Samples;Min_cycle;Max_cycle;Signal;HPM_P1;HPM_P2
2022/11/26 00:00:21;;;;;;;6.95;5.00;;;25.10;99.90;;;;;;1819464;75;21706;-83
2022/11/26 00:03:01;;;;;;;11.53;8.05;;;25.10;99.90;;;;;;1839282;75;21604;-82
2022/11/26 00:05:33;;;;;;;7.65;5.25;;;25.10;99.90;;;;;;1834392;75;21160;-81
2022/11/26 00:08:04;;;;;;;6.95;4.72;;;25.10;99.90;;;;;;1837925;77;21233;-82
2022/11/26 00:10:36;;;;;;;7.35;3.75;;;25.00;99.90;;;;;;1833925;76;21121;-82
2022/11/26 00:13:09;;;;;;;7.20;4.97;;;25.10;99.90;;;;;;1812664;77;21184;-82
2022/11/26 00:15:40;;;;;;;6.25;3.35;;;25.00;99.90;;;;;;1808168;76;21226;-83
2022/11/26 00:18:11;;;;;;;8.88;5.08;;;25.00;99.90;;;;;;1816422;75;21155;-83
2022/11/26 00:20:51;;;;;;;7.22;3.55;;;25.00;99.90;;;;;;1834018;75;21208;-79
2022/11/26 00:23:25;;;;;;;8.45;3.60;;;25.00;99.90;;;;;;1829701;77;21184;-84
2022/11/26 00:26:03;;;;;;;10.28;3.60;;;25.00;99.90;;;;;;1821446;75;21694;-83
2022/11/26 00:28:38;;;;;;;5.78;3.40;;;25.00;99.90;;;;;;1831182;75;21093;-83
2022/11/26 00:31:16;;;;;;;7.12;4.45;;;25.00;99.90;;;;;;1830307;77;21679;-82
2022/11/26 00:33:47;;;;;;;12.03;6.55;;;25.00;99.90;;;;;;1827933;75;21631;-84
2022/11/26 00:36:32;;;;;;;12.00;7.15;;;25.00;99.90;;;;;;1820728;77;21722;-82
2022/11/26 00:39:07;;;;;;;6.78;4.37;;;25.00;99.90;;;;;;1833419;75;21191;-83
2022/11/26 00:41:39;;;;;;;7.95;3.85;;;25.00;99.90;;;;;;1828116;75;21182;-84
2022/11/26 00:44:18;;;;;;;8.30;4.10;;;25.00;99.90;;;;;;1829927;77;21242;-84
2022/11/26 00:46:50;;;;;;;11.80;5.65;;;25.10;99.90;;;;;;1824494;75;21138;-84
2022/11/26 00:49:21;;;;;;;9.23;5.47;;;25.10;99.90;;;;;;1825876;75;21224;-83
2022/11/26 00:51:52;;;;;;;6.62;3.80;;;25.10;99.90;;;;;;1821198;77;21750;-83
2022/11/26 00:54:37;;;;;;;11.73;3.98;;;25.10;99.90;;;;;;1813168;76;21087;-83
2022/11/26 00:57:10;;;;;;;12.30;5.37;;;25.10;99.90;;;;;;1831156;77;21154;-84
2022/11/26 00:59:41;;;;;;;13.03;7.00;;;25.10;99.90;;;;;;1823395;76;21650;-82
2022/11/26 01:02:12;;;;;;;8.68;4.60;;;25.10;99.90;;;;;;1828595;77;21133;-84
2022/11/26 01:04:49;;;;;;;6.62;4.05;;;25.10;99.90;;;;;;1822378;77;21538;-82
2022/11/26 01:07:20;;;;;;;6.47;3.98;;;25.10;99.90;;;;;;1819956;77;21710;-85
2022/11/26 01:09:54;;;;;;;6.75;4.03;;;25.20;99.90;;;;;;1825452;77;21638;-83
2022/11/26 01:12:25;;;;;;;5.25;3.33;;;25.10;99.90;;;;;;1824187;75;21178;-84
2022/11/26 01:15:15;;;;;;;6.37;3.45;;;25.20;99.90;;;;;;1830222;75;21324;-82
2022/11/26 01:17:48;;;;;;;7.55;4.08;;;25.10;99.90;;;;;;1829082;75;21167;-83
2022/11/26 01:20:25;;;;;;;5.90;3.95;;;25.10;99.90;;;;;;1828897;77;21203;-84
2022/11/26 01:22:57;;;;;;;8.08;4.22;;;25.10;99.90;;;;;;1815197;77;21651;-84
2022/11/26 01:25:45;;;;;;;8.13;5.00;;;25.10;99.90;;;;;;1816522;77;21154;-85
2022/11/26 01:28:13;;;;;;;7.70;3.40;;;25.10;99.90;;;;;;1827925;76;21181;-84
2022/11/26 01:30:47;;;;;;;9.33;3.65;;;25.20;99.90;;;;;;1844062;74;21113;-85
2022/11/26 01:33:18;;;;;;;6.70;3.47;;;25.20;99.90;;;;;;1831591;74;21123;-83
2022/11/26 01:35:49;;;;;;;5.58;3.65;;;25.20;99.90;;;;;;1778508;79;21267;-74
2022/11/26 01:38:21;;;;;;;7.65;3.17;;;25.30;99.90;;;;;;1839438;76;21142;-72
2022/11/26 01:41:03;;;;;;;6.05;3.12;;;25.30;99.90;;;;;;1825558;77;21136;-73
2022/11/26 01:43:42;;;;;;;5.37;3.05;;;25.30;99.90;;;;;;1821894;77;21735;-73
2022/11/26 01:46:17;;;;;;;4.70;2.52;;;25.30;99.90;;;;;;1767137;79;21190;-74
2022/11/26 01:48:50;;;;;;;6.92;3.08;;;25.30;99.90;;;;;;1842895;76;21249;-74
2022/11/26 01:51:28;;;;;;;7.12;2.60;;;25.40;99.90;;;;;;1803442;76;21208;-72
2022/11/26 01:54:00;;;;;;;6.87;2.83;;;25.40;99.90;;;;;;1807888;77;21116;-73
2022/11/26 01:56:40;;;;;;;5.35;2.45;;;25.50;99.90;;;;;;1811942;78;21164;-74
2022/11/26 01:59:16;;;;;;;6.45;2.55;;;25.60;99.90;;;;;;1823000;76;21219;-72
2022/11/26 02:01:49;;;;;;;4.50;2.15;;;25.60;99.90;;;;;;1843258;77;21131;-72
2022/11/26 02:04:31;;;;;;;10.15;2.90;;;25.70;99.90;;;;;;1839534;75;21272;-74
2022/11/26 02:07:02;;;;;;;4.05;2.42;;;25.70;99.90;;;;;;1803738;77;21571;-72
2022/11/26 02:09:33;;;;;;;6.15;2.20;;;25.80;99.90;;;;;;1838320;76;21217;-73
2022/11/26 02:12:05;;;;;;;4.25;1.80;;;25.80;99.90;;;;;;1822430;76;21155;-72
2022/11/26 02:14:38;;;;;;;3.58;1.98;;;25.90;99.90;;;;;;1838250;76;21140;-72
2022/11/26 02:17:27;;;;;;;5.45;1.90;;;25.90;99.90;;;;;;1829194;77;21167;-71
2022/11/26 02:20:03;;;;;;;5.25;2.17;;;25.90;99.90;;;;;;1836795;75;21284;-74
2022/11/26 02:22:56;;;;;;;3.77;2.05;;;26.00;99.90;;;;;;1803575;78;21220;-75
2022/11/26 02:25:48;;;;;;;6.40;2.75;;;26.00;99.90;;;;;;1817652;76;21190;-73
2022/11/26 02:28:44;;;;;;;4.10;2.12;;;26.10;99.90;;;;;;1823126;77;21185;-73
2022/11/26 02:31:36;;;;;;;4.92;2.37;;;26.10;99.90;;;;;;1804489;77;21200;-74
2022/11/26 02:34:13;;;;;;;4.95;2.20;;;26.20;99.90;;;;;;1832615;76;21099;-73
2022/11/26 02:36:51;;;;;;;5.83;2.62;;;26.20;99.90;;;;;;1825367;76;21105;-73
2022/11/26 02:39:25;;;;;;;5.25;2.58;;;26.30;99.90;;;;;;1808870;76;21714;-74
2022/11/26 02:41:59;;;;;;;5.00;2.58;;;26.30;99.90;;;;;;1819335;77;21750;-73
2022/11/26 02:44:37;;;;;;;8.15;3.12;;;26.40;99.90;;;;;;1828970;76;21512;-73
2022/11/26 02:47:11;;;;;;;7.03;2.62;;;26.40;99.90;;;;;;1835562;75;21691;-74
2022/11/26 02:49:44;;;;;;;4.95;2.45;;;26.50;99.90;;;;;;1808432;77;21153;-74
2022/11/26 02:52:20;;;;;;;4.47;2.55;;;26.50;99.90;;;;;;1826751;76;21597;-73
2022/11/26 02:54:54;;;;;;;4.97;2.45;;;26.60;99.90;;;;;;1822738;76;21171;-73
2022/11/26 02:57:30;;;;;;;7.17;2.50;;;26.60;99.90;;;;;;1827583;75;21236;-73
2022/11/26 03:00:01;;;;;;;7.17;2.55;;;26.60;99.90;;;;;;1816302;76;21076;-73
2022/11/26 03:02:36;;;;;;;7.15;2.55;;;26.60;99.90;;;;;;1830237;77;21701;-73
2022/11/26 03:05:09;;;;;;;4.62;2.72;;;26.60;99.90;;;;;;1829571;77;21257;-73
2022/11/26 03:07:40;;;;;;;5.75;2.83;;;26.70;99.90;;;;;;1825683;77;21585;-73
2022/11/26 03:10:12;;;;;;;5.78;2.62;;;26.70;99.90;;;;;;1820727;77;21146;-74
2022/11/26 03:12:43;;;;;;;4.15;2.60;;;26.70;99.90;;;;;;1803222;78;21214;-72
2022/11/26 03:15:14;;;;;;;3.83;2.50;;;26.80;99.90;;;;;;1825190;77;21160;-73
2022/11/26 03:17:45;;;;;;;6.78;2.70;;;26.80;99.90;;;;;;1837530;76;21787;-73
2022/11/26 03:20:17;;;;;;;6.78;2.58;;;26.80;99.90;;;;;;1823022;75;21208;-73
2022/11/26 03:22:48;;;;;;;4.00;2.70;;;26.80;99.90;;;;;;1794947;77;21672;-73
2022/11/26 03:25:23;;;;;;;5.05;2.80;;;26.80;99.90;;;;;;1810590;77;21137;-73
2022/11/26 03:27:54;;;;;;;5.03;2.85;;;26.80;99.90;;;;;;1836310;77;21665;-75
2022/11/26 03:30:26;;;;;;;4.47;2.70;;;26.90;99.90;;;;;;1851652;75;21212;-74
2022/11/26 03:32:57;;;;;;;5.70;2.52;;;27.00;99.90;;;;;;1810211;77;21246;-74
2022/11/26 03:35:32;;;;;;;6.25;2.72;;;27.00;99.90;;;;;;1837272;75;21124;-73
2022/11/26 03:38:03;;;;;;;4.35;2.45;;;27.10;99.90;;;;;;1843654;76;21143;-74
2022/11/26 03:40:37;;;;;;;4.10;2.92;;;27.20;99.90;;;;;;1833663;75;21156;-74
2022/11/26 03:43:11;;;;;;;4.10;2.85;;;27.20;99.80;;;;;;1815162;77;22355;-74
2022/11/26 03:45:44;;;;;;;3.92;2.75;;;27.30;99.70;;;;;;1815635;77;21694;-74
2022/11/26 03:48:15;;;;;;;4.00;2.35;;;27.20;99.50;;;;;;1825535;77;21218;-73
2022/11/26 03:50:47;;;;;;;4.25;2.60;;;27.30;99.30;;;;;;1818789;75;21196;-74
2022/11/26 03:53:18;;;;;;;4.45;2.62;;;27.30;99.20;;;;;;1798832;78;21158;-73
2022/11/26 03:55:49;;;;;;;4.92;2.58;;;27.30;99.10;;;;;;1823579;77;21194;-74
2022/11/26 03:58:21;;;;;;;5.00;2.87;;;27.40;98.90;;;;;;1826126;77;21237;-74
2022/11/26 04:00:52;;;;;;;4.33;2.50;;;27.40;98.80;;;;;;1808125;77;21538;-74
2022/11/26 04:03:24;;;;;;;3.90;2.80;;;27.50;98.90;;;;;;1829532;75;21087;-73
2022/11/26 04:05:55;;;;;;;6.97;3.00;;;27.60;99.00;;;;;;1838553;75;21164;-74
2022/11/26 04:08:27;;;;;;;5.95;2.77;;;27.70;98.00;;;;;;1801536;78;21099;-74
2022/11/26 04:11:01;;;;;;;4.15;2.70;;;27.80;98.10;;;;;;1801011;75;21247;-73
2022/11/26 04:13:32;;;;;;;5.90;3.15;;;27.90;98.10;;;;;;1803724;77;21100;-73
2022/11/26 04:16:04;;;;;;;7.33;3.40;;;27.90;97.90;;;;;;1807713;77;21692;-73
2022/11/26 04:18:35;;;;;;;6.53;3.12;;;28.00;98.00;;;;;;1830919;77;21182;-73
2022/11/26 04:21:08;;;;;;;5.78;3.17;;;28.10;98.00;;;;;;1826792;76;21206;-73
2022/11/26 04:23:41;;;;;;;9.70;3.27;;;28.10;97.90;;;;;;1818947;77;21265;-74
2022/11/26 04:26:13;;;;;;;5.28;3.12;;;28.20;97.70;;;;;;1822632;76;21109;-73
2022/11/26 04:28:44;;;;;;;6.08;3.55;;;28.30;97.10;;;;;;1829147;77;21244;-75
2022/11/26 04:31:15;;;;;;;4.78;2.70;;;28.30;97.20;;;;;;1828582;75;21211;-75
2022/11/26 04:33:46;;;;;;;3.58;2.55;;;28.30;97.20;;;;;;1844770;77;21164;-75
2022/11/26 04:36:22;;;;;;;4.83;2.92;;;28.30;97.30;;;;;;1777809;77;21194;-74
2022/11/26 04:38:55;;;;;;;4.78;2.75;;;28.30;97.30;;;;;;1785617;77;21220;-75
2022/11/26 04:41:27;;;;;;;3.40;2.58;;;28.30;97.20;;;;;;1786811;78;21907;-73
2022/11/26 04:43:58;;;;;;;4.12;3.00;;;28.30;97.20;;;;;;1806262;76;21277;-74
2022/11/26 04:46:29;;;;;;;4.50;2.60;;;28.40;97.30;;;;;;1797425;77;21137;-75
2022/11/26 04:49:00;;;;;;;4.20;2.80;;;28.50;97.30;;;;;;1816053;76;22206;-74
2022/11/26 04:51:31;;;;;;;5.05;2.40;;;28.70;97.00;;;;;;1808501;75;21164;-74
2022/11/26 04:54:04;;;;;;;5.42;2.17;;;28.90;96.70;;;;;;1797899;77;21218;-74
2022/11/26 04:56:37;;;;;;;7.83;2.75;;;29.10;96.50;;;;;;1819103;77;21414;-75
2022/11/26 04:59:16;;;;;;;3.20;2.55;;;29.20;96.10;;;;;;1799491;77;21148;-74
2022/11/26 05:01:50;;;;;;;5.42;3.20;;;29.20;95.80;;;;;;1807291;75;21577;-73
2022/11/26 05:04:21;;;;;;;4.58;2.67;;;29.40;95.70;;;;;;1817042;76;21183;-74
2022/11/26 05:06:52;;;;;;;3.95;2.62;;;29.50;95.50;;;;;;1816368;76;21357;-76
2022/11/26 05:09:25;;;;;;;4.35;2.52;;;29.70;95.40;;;;;;1811280;76;21168;-74
2022/11/26 05:12:00;;;;;;;5.90;3.17;;;29.70;95.00;;;;;;1806062;77;21222;-79
2022/11/26 05:14:32;;;;;;;4.08;3.10;;;29.70;95.50;;;;;;1791962;77;21298;-75
2022/11/26 05:17:12;;;;;;;4.12;2.80;;;29.80;94.80;;;;;;1814208;76;21622;-74
2022/11/26 05:19:47;;;;;;;4.33;3.10;;;29.80;94.40;;;;;;1786067;78;21332;-73
2022/11/26 05:22:23;;;;;;;4.42;3.30;;;29.90;94.30;;;;;;1802415;76;21280;-73
2022/11/26 05:25:00;;;;;;;5.35;3.98;;;29.90;93.80;;;;;;1816785;76;21313;-74
2022/11/26 05:27:36;;;;;;;4.72;3.02;;;30.00;93.90;;;;;;1834571;76;21203;-73
2022/11/26 05:30:09;;;;;;;4.05;3.25;;;30.00;94.30;;;;;;1840883;75;21278;-73
2022/11/26 05:32:42;;;;;;;6.60;3.67;;;30.10;93.80;;;;;;1831757;77;21665;-75
2022/11/26 05:35:14;;;;;;;6.17;4.05;;;30.10;93.30;;;;;;1760844;79;21143;-74
2022/11/26 05:37:45;;;;;;;10.03;6.08;;;30.20;93.50;;;;;;1837589;75;21112;-73
2022/11/26 05:40:17;;;;;;;7.00;3.85;;;30.30;93.40;;;;;;1838375;77;21162;-74
2022/11/26 05:42:48;;;;;;;4.50;3.52;;;30.40;94.20;;;;;;1844432;77;21313;-74
2022/11/26 05:45:19;;;;;;;4.78;3.60;;;30.50;93.40;;;;;;1828191;76;21618;-73
2022/11/26 05:47:51;;;;;;;6.10;2.90;;;30.50;92.80;;;;;;1846254;77;21109;-73
2022/11/26 05:50:23;;;;;;;4.47;2.92;;;30.60;92.80;;;;;;1804894;77;21178;-73
2022/11/26 05:53:12;;;;;;;3.65;2.50;;;30.60;92.80;;;;;;1809603;77;21203;-74
2022/11/26 05:55:43;;;;;;;3.62;2.15;;;30.70;91.90;;;;;;1832162;77;21202;-72
2022/11/26 05:58:18;;;;;;;4.60;1.98;;;30.80;91.90;;;;;;1819994;77;21668;-72
2022/11/26 06:00:49;;;;;;;2.62;2.08;;;31.00;92.30;;;;;;1800146;78;21132;-72
2022/11/26 06:03:26;;;;;;;2.83;1.80;;;31.00;91.20;;;;;;1818707;77;21235;-73
2022/11/26 06:05:57;;;;;;;2.98;1.80;;;31.00;91.80;;;;;;1814836;77;21116;-75
2022/11/26 06:08:29;;;;;;;3.60;2.20;;;31.00;93.10;;;;;;1830621;76;21210;-74
2022/11/26 06:11:02;;;;;;;6.33;2.17;;;31.10;91.90;;;;;;1836056;76;21637;-71
2022/11/26 06:13:33;;;;;;;3.08;1.92;;;31.10;92.20;;;;;;1818529;76;21127;-75
2022/11/26 06:16:05;;;;;;;5.97;2.10;;;31.10;91.60;;;;;;1822161;77;21233;-74
2022/11/26 06:18:37;;;;;;;4.45;2.37;;;31.20;91.50;;;;;;1832764;76;21251;-73
2022/11/26 06:21:11;;;;;;;6.35;1.98;;;31.20;91.30;;;;;;1810880;77;21111;-73
2022/11/26 06:23:42;;;;;;;3.87;2.05;;;31.20;90.60;;;;;;1821550;77;21275;-74
2022/11/26 06:26:17;;;;;;;3.15;1.87;;;31.10;90.70;;;;;;1831534;77;21249;-73
2022/11/26 06:28:49;;;;;;;4.08;1.80;;;31.00;91.10;;;;;;1828080;77;21144;-73
2022/11/26 06:31:21;;;;;;;3.75;1.40;;;30.90;91.40;;;;;;1815848;77;21173;-73
2022/11/26 06:33:56;;;;;;;2.75;1.62;;;30.80;91.40;;;;;;1829552;76;21145;-74
2022/11/26 06:36:27;;;;;;;5.33;2.00;;;30.80;90.80;;;;;;1821296;77;21738;-74
2022/11/26 06:39:00;;;;;;;2.67;1.35;;;30.90;91.00;;;;;;1829539;78;21184;-74
2022/11/26 06:41:34;;;;;;;3.67;1.82;;;30.90;91.40;;;;;;1834875;77;21175;-74
2022/11/26 06:44:05;;;;;;;3.55;2.40;;;31.00;91.30;;;;;;1836479;76;21239;-73
2022/11/26 06:46:38;;;;;;;2.87;1.70;;;31.00;90.70;;;;;;1811079;77;21140;-74
2022/11/26 06:49:12;;;;;;;3.17;1.72;;;31.00;90.80;;;;;;1824639;78;21152;-74
2022/11/26 06:51:43;;;;;;;2.98;1.90;;;31.00;90.30;;;;;;1838659;77;21561;-71
2022/11/26 06:54:14;;;;;;;3.60;1.82;;;31.10;90.20;;;;;;1841307;77;21253;-70
2022/11/26 06:56:47;;;;;;;4.35;1.75;;;31.10;89.90;;;;;;1827654;76;21175;-69
2022/11/26 06:59:18;;;;;;;3.58;1.62;;;31.10;89.10;;;;;;1805190;76;21118;-68
2022/11/26 07:01:50;;;;;;;2.20;1.50;;;31.20;89.60;;;;;;1792068;78;21229;-68
2022/11/26 07:04:25;;;;;;;2.92;1.47;;;31.30;90.10;;;;;;1817390;77;21651;-69
2022/11/26 07:06:55;;;;;;;3.47;1.90;;;31.30;89.30;;;;;;1811163;77;21133;-69
2022/11/26 07:09:28;;;;;;;2.67;1.60;;;31.40;88.20;;;;;;1815724;77;21089;-67
2022/11/26 07:12:01;;;;;;;3.30;1.70;;;31.40;90.30;;;;;;1816420;77;21207;-69
2022/11/26 07:14:34;;;;;;;3.77;1.85;;;31.50;88.90;;;;;;1812898;77;21640;-68
2022/11/26 07:17:11;;;;;;;3.22;1.77;;;31.50;86.50;;;;;;1811799;77;21549;-68
2022/11/26 07:19:40;;;;;;;4.22;2.10;;;31.50;87.00;;;;;;1813682;77;21242;-69
2022/11/26 07:22:18;;;;;;;3.80;1.80;;;31.50;87.50;;;;;;1791161;78;21764;-68
2022/11/26 07:24:48;;;;;;;3.75;1.87;;;31.50;86.20;;;;;;1802245;77;21192;-69
2022/11/26 07:27:20;;;;;;;3.30;2.02;;;31.40;86.00;;;;;;1813640;77;21145;-69
2022/11/26 07:29:51;;;;;;;3.40;2.00;;;31.40;85.50;;;;;;1782073;79;21232;-69
2022/11/26 07:32:22;;;;;;;2.90;1.90;;;31.40;84.30;;;;;;1817585;77;21094;-68
2022/11/26 07:34:59;;;;;;;3.65;1.40;;;31.40;83.10;;;;;;1821450;77;21661;-69
2022/11/26 07:37:30;;;;;;;2.02;1.37;;;31.30;83.40;;;;;;1824059;77;21281;-68
2022/11/26 07:40:01;;;;;;;2.10;1.57;;;31.30;84.70;;;;;;1807241;77;21259;-68
2022/11/26 07:42:32;;;;;;;4.28;2.58;;;31.20;85.10;;;;;;1803196;77;21090;-69
2022/11/26 07:45:03;;;;;;;5.55;1.98;;;31.20;85.50;;;;;;1803734;77;21600;-69
2022/11/26 07:47:35;;;;;;;3.52;1.90;;;31.20;85.10;;;;;;1797599;77;22176;-69
2022/11/26 07:50:07;;;;;;;4.00;1.70;;;31.20;84.90;;;;;;1821655;77;21245;-69
2022/11/26 07:52:38;;;;;;;4.90;1.87;;;31.10;84.80;;;;;;1818498;76;22349;-69
2022/11/26 07:55:10;;;;;;;2.90;1.62;;;31.10;85.40;;;;;;1807310;77;21749;-68
2022/11/26 07:57:41;;;;;;;3.95;1.92;;;31.10;86.10;;;;;;1818520;77;21172;-69
2022/11/26 08:00:13;;;;;;;4.53;1.82;;;31.20;86.20;;;;;;1809114;77;21191;-67
2022/11/26 08:02:44;;;;;;;3.62;2.12;;;31.20;86.10;;;;;;1819282;77;21109;-69
2022/11/26 08:05:15;;;;;;;2.67;1.87;;;31.20;86.50;;;;;;1808475;77;21145;-68
2022/11/26 08:07:46;;;;;;;3.87;2.40;;;31.20;85.00;;;;;;1805832;77;21596;-68
2022/11/26 08:10:17;;;;;;;3.20;1.87;;;31.20;85.20;;;;;;1809261;78;21218;-69
2022/11/26 08:12:48;;;;;;;3.22;2.10;;;31.20;85.60;;;;;;1819287;77;21160;-68
2022/11/26 08:15:19;;;;;;;3.90;1.90;;;31.10;85.50;;;;;;1814570;77;22289;-68
2022/11/26 08:17:52;;;;;;;3.37;2.50;;;31.00;86.70;;;;;;1814040;77;21226;-69
2022/11/26 08:20:24;;;;;;;4.28;2.10;;;31.00;87.40;;;;;;1818035;77;21682;-69
2022/11/26 08:22:58;;;;;;;5.40;2.20;;;31.00;87.60;;;;;;1817458;77;21168;-70
2022/11/26 08:25:29;;;;;;;2.72;2.10;;;31.00;87.00;;;;;;1827120;77;22272;-69
2022/11/26 08:28:00;;;;;;;2.60;1.65;;;30.90;87.20;;;;;;1815607;75;21749;-69
2022/11/26 08:30:31;;;;;;;3.83;2.05;;;30.90;87.50;;;;;;1802774;77;21203;-69
2022/11/26 08:33:06;;;;;;;3.37;2.37;;;30.90;87.90;;;;;;1810963;77;21178;-70
2022/11/26 08:35:37;;;;;;;5.42;2.27;;;30.80;88.00;;;;;;1796650;76;21638;-69
2022/11/26 08:38:09;;;;;;;5.50;2.10;;;30.80;87.70;;;;;;1799559;77;21119;-69
2022/11/26 08:40:40;;;;;;;4.33;2.12;;;30.90;87.50;;;;;;1820353;77;21207;-71
2022/11/26 08:43:14;;;;;;;2.67;1.90;;;30.90;87.60;;;;;;1788235;78;21153;-70
2022/11/26 08:45:55;;;;;;;4.37;1.80;;;30.90;87.20;;;;;;1804426;77;21171;-69
2022/11/26 08:48:27;;;;;;;5.05;2.30;;;30.90;87.50;;;;;;1811168;77;21628;-69
2022/11/26 08:51:08;;;;;;;5.50;2.60;;;30.90;87.60;;;;;;1815132;77;21186;-68
2022/11/26 08:53:42;;;;;;;2.77;1.80;;;30.90;88.10;;;;;;1782576;78;21677;-67
2022/11/26 08:56:14;;;;;;;3.60;1.67;;;30.90;88.10;;;;;;1785879;78;21589;-68
2022/11/26 08:58:50;;;;;;;4.67;2.10;;;30.90;88.00;;;;;;1787707;78;21128;-68
2022/11/26 09:01:26;;;;;;;5.92;2.00;;;30.90;88.70;;;;;;1794612;78;21168;-68
2022/11/26 09:03:59;;;;;;;6.10;2.22;;;31.00;88.30;;;;;;1833526;75;21183;-68
2022/11/26 09:06:32;;;;;;;2.98;2.17;;;31.00;87.60;;;;;;1820526;77;21151;-69
2022/11/26 09:09:12;;;;;;;4.83;2.60;;;31.10;87.30;;;;;;1798559;77;21799;-69
2022/11/26 09:11:48;;;;;;;3.87;2.77;;;31.00;85.60;;;;;;1812119;77;21176;-69
2022/11/26 09:14:21;;;;;;;4.90;1.90;;;31.00;85.80;;;;;;1799229;77;21164;-69
2022/11/26 09:16:58;;;;;;;3.55;2.17;;;30.90;85.60;;;;;;1737739;82;21111;-69
2022/11/26 09:19:30;;;;;;;3.80;2.75;;;30.80;85.70;;;;;;1803654;77;21610;-68
2022/11/26 09:22:01;;;;;;;3.85;2.47;;;30.70;86.10;;;;;;1785694;78;21691;-68
2022/11/26 09:24:32;;;;;;;2.60;1.80;;;30.60;86.90;;;;;;1800034;77;21559;-69
2022/11/26 09:27:05;;;;;;;6.30;2.20;;;30.60;86.90;;;;;;1812602;77;21568;-68
2022/11/26 09:29:40;;;;;;;5.47;2.67;;;30.60;87.60;;;;;;1814447;77;21188;-67
2022/11/26 09:32:13;;;;;;;5.60;3.20;;;30.50;88.30;;;;;;1814978;77;21147;-67
2022/11/26 09:35:03;;;;;;;3.42;2.10;;;30.50;88.40;;;;;;1820145;77;21786;-69
2022/11/26 09:37:33;;;;;;;3.65;1.80;;;30.50;88.10;;;;;;1785034;78;21168;-69
2022/11/26 09:40:05;;;;;;;8.05;2.67;;;30.40;87.80;;;;;;1809528;77;21227;-68
2022/11/26 09:42:50;;;;;;;5.72;2.67;;;30.30;87.80;;;;;;1822439;77;21246;-69
2022/11/26 09:45:38;;;;;;;6.42;3.58;;;30.30;87.50;;;;;;1827704;77;21213;-67
2022/11/26 09:48:18;;;;;;;5.28;2.40;;;30.30;88.30;;;;;;1806038;77;21191;-67
2022/11/26 09:50:51;;;;;;;5.90;3.22;;;30.30;87.60;;;;;;1787308;77;21224;-67
2022/11/26 09:56:18;;;;;;;7.75;4.45;;;30.20;88.30;;;;;;1738967;81;21201;-68
2022/11/26 09:58:56;;;;;;;6.95;3.33;;;30.20;88.70;;;;;;1723346;81;21622;-69
2022/11/26 10:01:27;;;;;;;9.55;5.78;;;30.20;88.30;;;;;;1732386;81;21196;-69
2022/11/26 10:03:59;;;;;;;7.87;5.33;;;30.20;89.00;;;;;;1743126;81;22081;-68
2022/11/26 10:06:44;;;;;;;4.40;3.00;;;30.10;89.30;;;;;;1729900;81;21217;-69
2022/11/26 10:09:41;;;;;;;7.03;3.30;;;30.10;89.10;;;;;;1732214;81;21162;-69
2022/11/26 10:12:36;;;;;;;5.00;2.83;;;30.10;89.30;;;;;;1728429;81;21199;-69
2022/11/26 10:15:13;;;;;;;8.40;3.20;;;30.10;89.70;;;;;;1731354;82;21649;-68
2022/11/26 10:17:47;;;;;;;;;;;30.00;90.10;;;;;;1710015;83;21212;-68
2022/11/26 10:20:39;;;;;;;4.58;2.77;;;30.00;90.70;;;;;;1670082;84;20291;-68
2022/11/26 10:23:15;;;;;;;4.45;2.92;;;30.00;90.40;;;;;;1673065;84;21341;-69
2022/11/26 10:25:55;;;;;;;6.25;2.87;;;30.00;90.50;;;;;;1734112;81;21224;-68
2022/11/26 10:28:42;;;;;;;6.37;2.87;;;29.90;90.50;;;;;;1729685;81;21158;-68
2022/11/26 10:31:17;;;;;;;4.05;2.92;;;29.90;90.60;;;;;;1728680;81;21241;-68
2022/11/26 10:33:57;;;;;;;6.03;3.67;;;29.90;90.70;;;;;;1727442;81;21638;-69
2022/11/26 10:36:33;;;;;;;7.50;3.15;;;29.90;90.90;;;;;;1721153;81;21209;-68
2022/11/26 10:39:06;;;;;;;4.30;2.70;;;29.80;90.80;;;;;;1737606;81;21224;-68
2022/11/26 10:41:38;;;;;;;5.58;3.27;;;29.80;90.60;;;;;;1737510;81;22162;-67
2022/11/26 10:44:31;;;;;;;6.40;3.35;;;29.80;90.90;;;;;;1745240;80;21139;-70
2022/11/26 10:47:20;;;;;;;6.75;3.60;;;29.80;90.90;;;;;;1741429;81;21684;-69
2022/11/26 10:49:52;;;;;;;8.68;3.17;;;29.80;91.00;;;;;;1739506;81;21653;-68
2022/11/26 10:52:30;;;;;;;6.45;3.20;;;29.80;91.00;;;;;;1739784;81;21239;-69
2022/11/26 10:55:31;;;;;;;6.60;3.08;;;29.70;91.10;;;;;;1743956;81;21769;-85
2022/11/26 10:58:07;;;;;;;6.65;3.75;;;29.70;91.20;;;;;;1734947;81;21280;-84
2022/11/26 11:00:43;;;;;;;6.58;3.85;;;29.70;91.30;;;;;;1723411;80;21161;-85
2022/11/26 11:03:17;;;;;;;10.03;6.30;;;29.70;91.40;;;;;;1734391;82;21167;-85
2022/11/26 11:05:51;;;;;;;10.98;6.10;;;29.70;91.50;;;;;;1722333;81;21163;-85
2022/11/26 11:08:33;;;;;;;9.33;5.78;;;29.70;91.60;;;;;;1727171;82;21139;-84
2022/11/26 11:11:05;;;;;;;9.30;5.20;;;29.70;91.70;;;;;;1726756;81;21185;-84
2022/11/26 11:13:45;;;;;;;9.60;5.67;;;29.60;91.70;;;;;;1734367;81;21233;-84
2022/11/26 11:16:21;;;;;;;34.43;20.65;;;29.60;91.80;;;;;;1738451;80;21850;-84
2022/11/26 11:18:58;;;;;;;34.63;20.02;;;29.60;91.80;;;;;;1739407;80;21130;-85
2022/11/26 11:21:38;;;;;;;26.80;15.78;;;29.60;91.90;;;;;;1725552;81;21273;-83
2022/11/26 11:24:28;;;;;;;21.30;13.55;;;29.60;92.10;;;;;;1712402;82;21171;-84
2022/11/26 11:27:00;;;;;;;17.45;13.35;;;29.50;92.10;;;;;;1735528;81;21256;-84
2022/11/26 11:29:33;;;;;;;18.27;11.78;;;29.50;92.20;;;;;;1738377;81;21299;-85
2022/11/26 11:32:09;;;;;;;19.67;12.75;;;29.50;92.20;;;;;;1735189;81;21208;-84
2022/11/26 11:34:43;;;;;;;13.45;8.63;;;29.50;92.30;;;;;;1728425;82;21625;-85
2022/11/26 11:37:17;;;;;;;11.35;7.15;;;29.40;92.40;;;;;;1732871;81;21194;-85
2022/11/26 11:40:03;;;;;;;11.48;6.95;;;29.50;92.50;;;;;;1728784;82;21233;-83
2022/11/26 11:42:34;;;;;;;13.93;6.97;;;29.40;92.40;;;;;;1726328;81;21154;-84
2022/11/26 11:45:07;;;;;;;15.72;6.90;;;29.40;92.50;;;;;;1728305;81;21183;-84
2022/11/26 11:47:44;;;;;;;13.78;7.20;;;29.40;92.70;;;;;;1728444;81;21166;-84
2022/11/26 11:50:20;;;;;;;10.28;6.25;;;29.40;92.70;;;;;;1697340;83;21721;-83
2022/11/26 11:53:05;;;;;;;9.53;5.72;;;29.40;92.70;;;;;;1739192;81;21156;-83
2022/11/26 11:55:53;;;;;;;8.10;5.05;;;29.30;92.60;;;;;;1736235;81;21177;-84
2022/11/26 11:58:37;;;;;;;10.28;5.37;;;29.30;92.60;;;;;;1732509;81;21137;-85
2022/11/26 12:01:16;;;;;;;9.40;4.87;;;29.30;92.70;;;;;;1673136;84;21180;-84
2022/11/26 12:04:05;;;;;;;8.20;5.58;;;29.30;92.80;;;;;;1667092;84;21217;-83
2022/11/26 12:06:58;;;;;;;11.85;5.85;;;29.30;92.80;;;;;;1702805;82;21122;-82
2022/11/26 12:09:36;;;;;;;12.20;5.85;;;29.30;92.90;;;;;;1683243;83;21158;-85
2022/11/26 12:12:24;;;;;;;10.25;6.22;;;29.30;93.00;;;;;;1741469;81;21261;-83
2022/11/26 12:15:09;;;;;;;12.13;6.40;;;29.30;93.30;;;;;;1739990;81;21228;-83
2022/11/26 12:17:46;;;;;;;9.13;6.53;;;29.30;93.40;;;;;;1726384;82;21158;-85
2022/11/26 12:20:25;;;;;;;13.43;7.78;;;29.30;93.50;;;;;;1742842;81;21216;-83
2022/11/26 12:23:04;;;;;;;10.10;6.30;;;29.20;93.70;;;;;;1726412;82;21196;-83
2022/11/26 12:25:38;;;;;;;13.62;7.72;;;29.20;93.70;;;;;;1731900;81;21614;-85
2022/11/26 12:28:23;;;;;;;15.98;7.50;;;29.20;93.80;;;;;;1736864;81;21246;-84
2022/11/26 12:30:56;;;;;;;13.53;7.70;;;29.20;93.90;;;;;;1724506;82;21169;-84
2022/11/26 12:33:36;;;;;;;19.73;7.92;;;29.20;93.90;;;;;;1746200;81;21161;-85
2022/11/26 12:36:09;;;;;;;12.93;7.97;;;29.20;94.00;;;;;;1735876;81;21205;-84
2022/11/26 12:38:58;;;;;;;14.93;8.15;;;29.20;94.00;;;;;;1721931;81;21179;-85
2022/11/26 12:41:43;;;;;;;12.68;6.58;;;29.10;93.90;;;;;;1729321;81;21237;-85
2022/11/26 12:44:27;;;;;;;12.58;7.12;;;29.10;93.90;;;;;;1736712;81;21240;-83
2022/11/26 12:47:08;;;;;;;13.72;7.10;;;29.10;93.90;;;;;;1727467;81;21234;-84
2022/11/26 12:50:07;;;;;;;16.70;7.85;;;29.10;94.00;;;;;;1723769;81;21197;-85
2022/11/26 12:52:52;;;;;;;16.73;7.50;;;29.10;94.10;;;;;;1721322;82;21230;-84
2022/11/26 12:55:34;;;;;;;11.03;7.05;;;29.10;94.10;;;;;;1734187;81;21164;-84
2022/11/26 12:58:29;;;;;;;14.55;7.08;;;29.10;94.20;;;;;;1724486;81;21169;-84
2022/11/26 13:01:00;;;;;;;17.10;7.62;;;29.10;94.10;;;;;;1739994;81;21169;-84
2022/11/26 13:03:32;;;;;;;19.95;8.63;;;29.00;94.50;;;;;;1743221;81;21163;-83
2022/11/26 13:06:17;;;;;;;15.88;8.20;;;29.00;94.60;;;;;;1736055;81;21173;-84
2022/11/26 13:08:50;;;;;;;15.63;8.23;;;28.90;94.70;;;;;;1722576;81;21137;-83
2022/11/26 13:11:36;;;;;;;20.20;8.75;;;28.80;94.80;;;;;;1733693;81;21611;-84
2022/11/26 13:14:21;;;;;;;18.07;9.15;;;28.80;95.00;;;;;;1737431;81;21645;-84
2022/11/26 13:17:00;;;;;;;17.77;8.65;;;28.70;95.10;;;;;;1724496;81;21300;-84
2022/11/26 13:19:44;;;;;;;15.30;8.43;;;28.70;95.20;;;;;;1722193;81;21177;-85
2022/11/26 13:22:17;;;;;;;15.75;8.60;;;28.70;95.20;;;;;;1732338;81;21237;-85
2022/11/26 13:25:07;;;;;;;16.32;7.92;;;28.70;95.20;;;;;;1729410;81;21244;-83
2022/11/26 13:27:55;;;;;;;14.80;8.65;;;28.70;95.20;;;;;;1736457;81;21185;-84
2022/11/26 13:31:02;;;;;;;18.70;9.28;;;28.70;95.20;;;;;;1728147;81;21256;-84